sensor_id;sensor_type;location;lat;lon;timestamp;pressure;altitude;pressure_sealevel;temperature;humidity
54512;BME280;40419;47.438;19.026;2022-10-31T00:00:46;100475.97;;;10.94;100.00
54512;BME280;40419;47.438;19.026;2022-10-31T00:03:12;100478.81;;;10.86;100.00
54512;BME280;40419;47.438;19.026;2022-10-31T00:05:46;100476.72;;;10.88;100.00
54512;BME280;40419;47.438;19.026;2022-10-31T00:08:18;100474.66;;;10.90;100.00
54512;BME280;40419;47.438;19.026;2022-10-31T00:10:46;100478.88;;;10.92;100.00
54512;BME280;40419;47.438;19.026;2022-10-31T00:13:14;100473.91;;;10.96;100.00
54512;BME280;40419;47.438;19.026;2022-10-31T00:15:42;100466.63;;;10.96;100.00
54512;BME280;40419;47.438;19.026;2022-10-31T00:18:10;100475.16;;;10.93;100.00
54512;BME280;40419;47.438;19.026;2022-10-31T00:20:37;100468.47;;;10.96;100.00
54512;BME280;40419;47.438;19.026;2022-10-31T00:23:08;100465.72;;;10.89;100.00
54512;BME280;40419;47.438;19.026;2022-10-31T00:25:40;100477.19;;;10.91;100.00
54512;BME280;40419;47.438;19.026;2022-10-31T00:28:07;100463.19;;;10.88;100.00
54512;BME280;40419;47.438;19.026;2022-10-31T00:30:34;100473.84;;;10.74;100.00
54512;BME280;40419;47.438;19.026;2022-10-31T00:33:04;100465.34;;;10.77;100.00
54512;BME280;40419;47.438;19.026;2022-10-31T00:35:32;100462.94;;;10.82;100.00
54512;BME280;40419;47.438;19.026;2022-10-31T00:37:58;100462.94;;;10.82;100.00
54512;BME280;40419;47.438;19.026;2022-10-31T00:40:23;100455.81;;;10.81;100.00
54512;BME280;40419;47.438;19.026;2022-10-31T00:42:52;100465.91;;;10.88;100.00
54512;BME280;40419;47.438;19.026;2022-10-31T00:45:20;100457.03;;;10.79;100.00
54512;BME280;40419;47.438;19.026;2022-10-31T00:47:48;100468.25;;;10.76;100.00
54512;BME280;40419;47.438;19.026;2022-10-31T00:50:14;100463.31;;;10.79;100.00
54512;BME280;40419;47.438;19.026;2022-10-31T00:52:44;100459.09;;;10.77;100.00
54512;BME280;40419;47.438;19.026;2022-10-31T00:55:13;100453.31;;;10.80;100.00
54512;BME280;40419;47.438;19.026;2022-10-31T00:57:41;100455.97;;;10.58;100.00
54512;BME280;40419;47.438;19.026;2022-10-31T01:00:09;100461.53;;;10.72;100.00
54512;BME280;40419;47.438;19.026;2022-10-31T01:02:39;100460.13;;;10.76;100.00
54512;BME280;40419;47.438;19.026;2022-10-31T01:05:07;100455.19;;;10.79;100.00
54512;BME280;40419;47.438;19.026;2022-10-31T01:07:38;100456.88;;;10.66;100.00
54512;BME280;40419;47.438;19.026;2022-10-31T01:10:08;100453.22;;;10.73;100.00
54512;BME280;40419;47.438;19.026;2022-10-31T01:12:40;100456.78;;;10.59;100.00
54512;BME280;40419;47.438;19.026;2022-10-31T01:15:07;100459.50;;;10.59;100.00
54512;BME280;40419;47.438;19.026;2022-10-31T01:17:36;100455.97;;;10.58;100.00
54512;BME280;40419;47.438;19.026;2022-10-31T01:20:03;100453.97;;;10.67;100.00
54512;BME280;40419;47.438;19.026;2022-10-31T01:22:30;100451.25;;;10.67;100.00
54512;BME280;40419;47.438;19.026;2022-10-31T01:24:59;100452.13;;;10.53;100.00
54512;BME280;40419;47.438;19.026;2022-10-31T01:27:24;100453.34;;;10.50;100.00
54512;BME280;40419;47.438;19.026;2022-10-31T01:29:50;100449.13;;;10.48;100.00
54512;BME280;40419;47.438;19.026;2022-10-31T01:32:20;100452.31;;;10.51;100.00
54512;BME280;40419;47.438;19.026;2022-10-31T01:34:48;100448.56;;;10.52;100.00
54512;BME280;40419;47.438;19.026;2022-10-31T01:37:22;100448.22;;;10.55;100.00
54512;BME280;40419;47.438;19.026;2022-10-31T01:39:50;100445.53;;;10.40;100.00
54512;BME280;40419;47.438;19.026;2022-10-31T01:42:19;100445.94;;;10.29;100.00
54512;BME280;40419;47.438;19.026;2022-10-31T01:44:56;100430.47;;;10.53;100.00
54512;BME280;40419;47.438;19.026;2022-10-31T01:47:35;100442.44;;;10.43;100.00
54512;BME280;40419;47.438;19.026;2022-10-31T01:50:06;100444.28;;;10.43;100.00
54512;BME280;40419;47.438;19.026;2022-10-31T01:52:41;100441.56;;;10.43;100.00
54512;BME280;40419;47.438;19.026;2022-10-31T01:55:16;100443.66;;;10.41;100.00
54512;BME280;40419;47.438;19.026;2022-10-31T01:57:48;100439.53;;;10.45;100.00
54512;BME280;40419;47.438;19.026;2022-10-31T02:00:17;100437.84;;;10.44;100.00
54512;BME280;40419;47.438;19.026;2022-10-31T02:02:45;100440.75;;;10.42;100.00
54512;BME280;40419;47.438;19.026;2022-10-31T02:05:14;100435.72;;;10.39;100.00
54512;BME280;40419;47.438;19.026;2022-10-31T02:07:52;100433.47;;;10.43;100.00
54512;BME280;40419;47.438;19.026;2022-10-31T02:10:27;100431.22;;;10.32;100.00
54512;BME280;40419;47.438;19.026;2022-10-31T02:12:58;100428.22;;;10.41;100.00
54512;BME280;40419;47.438;19.026;2022-10-31T02:15:25;100433.25;;;10.44;100.00
54512;BME280;40419;47.438;19.026;2022-10-31T02:17:53;100431.59;;;10.43;100.00
54512;BME280;40419;47.438;19.026;2022-10-31T02:20:24;100434.94;;;10.45;100.00
54512;BME280;40419;47.438;19.026;2022-10-31T02:33:55;100433.06;;;10.46;100.00
54512;BME280;40419;47.438;19.026;2022-10-31T02:36:27;100424.75;;;10.48;100.00
54512;BME280;40419;47.438;19.026;2022-10-31T02:41:57;100435.03;;;10.52;100.00
54512;BME280;40419;47.438;19.026;2022-10-31T02:44:33;100439.72;;;10.43;100.00
54512;BME280;40419;47.438;19.026;2022-10-31T02:52:21;100448.03;;;10.42;100.00
54512;BME280;40419;47.438;19.026;2022-10-31T02:54:52;100447.34;;;10.55;100.00
54512;BME280;40419;47.438;19.026;2022-10-31T02:57:24;100442.13;;;10.53;100.00
54512;BME280;40419;47.438;19.026;2022-10-31T03:00:05;100449.25;;;10.54;100.00
54512;BME280;40419;47.438;19.026;2022-10-31T03:08:25;100439.16;;;10.48;100.00
54512;BME280;40419;47.438;19.026;2022-10-31T03:11:03;100440.09;;;10.40;100.00
54512;BME280;40419;47.438;19.026;2022-10-31T03:14:05;100442.13;;;10.38;100.00
54512;BME280;40419;47.438;19.026;2022-10-31T03:16:46;100444.97;;;10.45;100.00
54512;BME280;40419;47.438;19.026;2022-10-31T03:19:40;100449.31;;;10.31;100.00
54512;BME280;40419;47.438;19.026;2022-10-31T03:22:16;100450.97;;;10.32;100.00
54512;BME280;40419;47.438;19.026;2022-10-31T03:24:46;100447.53;;;10.23;100.00
54512;BME280;40419;47.438;19.026;2022-10-31T03:27:20;100450.41;;;10.22;100.00
54512;BME280;40419;47.438;19.026;2022-10-31T03:29:48;100456.69;;;10.22;100.00
54512;BME280;40419;47.438;19.026;2022-10-31T03:32:19;100456.41;;;10.32;100.00
54512;BME280;40419;47.438;19.026;2022-10-31T03:34:48;100452.31;;;10.36;100.00
54512;BME280;40419;47.438;19.026;2022-10-31T03:37:17;100454.34;;;10.64;100.00
54512;BME280;40419;47.438;19.026;2022-10-31T03:39:48;100451.94;;;10.54;100.00
54512;BME280;40419;47.438;19.026;2022-10-31T03:42:23;100460.25;;;10.38;100.00
54512;BME280;40419;47.438;19.026;2022-10-31T03:45:18;100464.09;;;10.43;100.00
54512;BME280;40419;47.438;19.026;2022-10-31T03:47:49;100455.50;;;10.40;100.00
54512;BME280;40419;47.438;19.026;2022-10-31T03:50:18;100461.28;;;10.37;100.00
54512;BME280;40419;47.438;19.026;2022-10-31T03:53:03;100469.41;;;10.37;100.00
54512;BME280;40419;47.438;19.026;2022-10-31T03:58:35;100463.34;;;10.35;100.00
54512;BME280;40419;47.438;19.026;2022-10-31T04:01:05;100458.56;;;10.37;100.00
54512;BME280;40419;47.438;19.026;2022-10-31T04:03:37;100462.22;;;10.44;100.00
54512;BME280;40419;47.438;19.026;2022-10-31T04:06:07;100456.81;;;10.44;100.00
54512;BME280;40419;47.438;19.026;2022-10-31T04:08:40;100463.53;;;10.33;100.00
54512;BME280;40419;47.438;19.026;2022-10-31T04:11:15;100463.59;;;10.40;100.00
54512;BME280;40419;47.438;19.026;2022-10-31T04:13:49;100465.94;;;10.43;100.00
54512;BME280;40419;47.438;19.026;2022-10-31T04:16:21;100469.13;;;10.46;100.00
54512;BME280;40419;47.438;19.026;2022-10-31T04:18:49;100471.53;;;10.41;100.00
54512;BME280;40419;47.438;19.026;2022-10-31T04:21:17;100474.06;;;10.43;100.00
54512;BME280;40419;47.438;19.026;2022-10-31T04:23:49;100468.19;;;10.39;100.00
54512;BME280;40419;47.438;19.026;2022-10-31T04:26:20;100478.72;;;10.49;100.00
54512;BME280;40419;47.438;19.026;2022-10-31T04:28:48;100472.03;;;10.45;100.00
54512;BME280;40419;47.438;19.026;2022-10-31T04:31:16;100480.41;;;10.50;100.00
54512;BME280;40419;47.438;19.026;2022-10-31T04:33:47;100477.06;;;10.48;100.00
54512;BME280;40419;47.438;19.026;2022-10-31T04:36:14;100486.50;;;10.37;100.00
54512;BME280;40419;47.438;19.026;2022-10-31T04:38:41;100484.31;;;10.33;100.00
54512;BME280;40419;47.438;19.026;2022-10-31T04:41:22;100487.88;;;10.33;100.00
54512;BME280;40419;47.438;19.026;2022-10-31T04:43:53;100490.03;;;10.38;100.00
54512;BME280;40419;47.438;19.026;2022-10-31T04:46:19;100484.31;;;10.33;100.00
54512;BME280;40419;47.438;19.026;2022-10-31T04:48:48;100486.69;;;10.36;100.00
54512;BME280;40419;47.438;19.026;2022-10-31T04:51:14;100484.81;;;10.36;100.00
54512;BME280;40419;47.438;19.026;2022-10-31T04:53:45;100482.75;;;10.38;100.00
54512;BME280;40419;47.438;19.026;2022-10-31T04:56:29;100488.72;;;10.34;100.00
54512;BME280;40419;47.438;19.026;2022-10-31T04:59:01;100486.50;;;10.37;100.00
54512;BME280;40419;47.438;19.026;2022-10-31T05:01:33;100486.00;;;10.34;100.00
54512;BME280;40419;47.438;19.026;2022-10-31T05:04:02;100483.41;;;10.40;100.00
54512;BME280;40419;47.438;19.026;2022-10-31T05:06:29;100485.34;;;10.32;100.00
54512;BME280;40419;47.438;19.026;2022-10-31T05:08:56;100502.00;;;10.43;100.00
54512;BME280;40419;47.438;19.026;2022-10-31T05:11:23;100483.97;;;10.36;100.00
54512;BME280;40419;47.438;19.026;2022-10-31T05:13:52;100500.56;;;10.33;100.00
54512;BME280;40419;47.438;19.026;2022-10-31T05:16:54;100497.97;;;10.39;100.00
54512;BME280;40419;47.438;19.026;2022-10-31T05:20:02;100484.66;;;10.29;100.00
54512;BME280;40419;47.438;19.026;2022-10-31T05:23:02;100500.44;;;10.26;100.00
54512;BME280;40419;47.438;19.026;2022-10-31T05:25:28;100501.66;;;10.23;100.00
54512;BME280;40419;47.438;19.026;2022-10-31T05:27:56;100480.75;;;10.32;100.00
54512;BME280;40419;47.438;19.026;2022-10-31T05:30:25;100491.44;;;10.34;100.00
54512;BME280;40419;47.438;19.026;2022-10-31T05:32:54;100497.13;;;10.39;100.00
54512;BME280;40419;47.438;19.026;2022-10-31T05:35:43;100495.63;;;10.36;100.00
54512;BME280;40419;47.438;19.026;2022-10-31T05:38:40;100496.94;;;10.40;100.00
54512;BME280;40419;47.438;19.026;2022-10-31T05:41:26;100499.31;;;10.20;100.00
54512;BME280;40419;47.438;19.026;2022-10-31T05:44:00;100489.03;;;10.39;100.00
54512;BME280;40419;47.438;19.026;2022-10-31T05:46:30;100510.06;;;10.28;100.00
54512;BME280;40419;47.438;19.026;2022-10-31T05:49:16;100507.41;;;10.43;100.00
54512;BME280;40419;47.438;19.026;2022-10-31T05:51:48;100527.28;;;10.36;100.00
54512;BME280;40419;47.438;19.026;2022-10-31T05:54:18;100518.50;;;10.34;100.00
54512;BME280;40419;47.438;19.026;2022-10-31T05:56:46;100511.78;;;10.44;100.00
54512;BME280;40419;47.438;19.026;2022-10-31T05:59:14;100500.75;;;10.31;100.00
54512;BME280;40419;47.438;19.026;2022-10-31T06:01:43;100514.41;;;10.53;100.00
54512;BME280;40419;47.438;19.026;2022-10-31T06:04:27;100510.31;;;10.57;100.00
54512;BME280;40419;47.438;19.026;2022-10-31T06:06:56;100519.06;;;10.44;100.00
54512;BME280;40419;47.438;19.026;2022-10-31T06:09:21;100519.16;;;10.51;100.00
54512;BME280;40419;47.438;19.026;2022-10-31T06:11:49;100506.28;;;10.53;100.00
54512;BME280;40419;47.438;19.026;2022-10-31T06:14:26;100500.13;;;10.59;100.00
54512;BME280;40419;47.438;19.026;2022-10-31T06:16:55;100511.69;;;10.53;100.00
54512;BME280;40419;47.438;19.026;2022-10-31T06:19:41;100509.63;;;10.55;100.00
54512;BME280;40419;47.438;19.026;2022-10-31T06:22:08;100517.94;;;10.53;100.00
54512;BME280;40419;47.438;19.026;2022-10-31T06:24:39;100509.25;;;10.58;100.00
54512;BME280;40419;47.438;19.026;2022-10-31T06:27:30;100509.94;;;10.45;100.00
54512;BME280;40419;47.438;19.026;2022-10-31T06:30:04;100510.00;;;10.52;100.00
54512;BME280;40419;47.438;19.026;2022-10-31T06:32:33;100500.38;;;10.49;100.00
54512;BME280;40419;47.438;19.026;2022-10-31T06:34:58;100503.94;;;10.64;100.00
54512;BME280;40419;47.438;19.026;2022-10-31T06:37:24;100507.31;;;10.67;100.00
54512;BME280;40419;47.438;19.026;2022-10-31T06:39:59;100515.16;;;10.61;100.00
54512;BME280;40419;47.438;19.026;2022-10-31T06:42:27;100522.34;;;10.69;100.00
54512;BME280;40419;47.438;19.026;2022-10-31T06:44:55;100520.38;;;10.78;100.00
54512;BME280;40419;47.438;19.026;2022-10-31T06:47:50;100525.81;;;10.63;100.00
54512;BME280;40419;47.438;19.026;2022-10-31T06:50:22;100526.63;;;10.63;100.00
54512;BME280;40419;47.438;19.026;2022-10-31T06:52:57;100535.31;;;10.74;100.00
54512;BME280;40419;47.438;19.026;2022-10-31T06:55:26;100535.31;;;10.59;100.00
54512;BME280;40419;47.438;19.026;2022-10-31T06:58:01;100537.84;;;10.60;100.00
54512;BME280;40419;47.438;19.026;2022-10-31T07:00:32;100540.53;;;10.45;100.00
54512;BME280;40419;47.438;19.026;2022-10-31T07:03:11;100540.72;;;10.44;100.00
54512;BME280;40419;47.438;19.026;2022-10-31T07:05:37;100542.41;;;10.45;100.00
54512;BME280;40419;47.438;19.026;2022-10-31T07:08:08;100546.22;;;10.51;100.00
54512;BME280;40419;47.438;19.026;2022-10-31T07:10:37;100552.50;;;10.51;100.00
54512;BME280;40419;47.438;19.026;2022-10-31T07:13:06;100552.75;;;10.41;100.00
54512;BME280;40419;47.438;19.026;2022-10-31T07:15:38;100559.03;;;10.42;100.00
54512;BME280;40419;47.438;19.026;2022-10-31T07:18:09;100555.47;;;10.56;100.00
54512;BME280;40419;47.438;19.026;2022-10-31T07:20:40;100551.81;;;10.49;100.00
54512;BME280;40419;47.438;19.026;2022-10-31T07:23:14;100544.63;;;10.41;100.00
54512;BME280;40419;47.438;19.026;2022-10-31T07:25:44;100563.41;;;10.43;100.00
54512;BME280;40419;47.438;19.026;2022-10-31T07:28:23;100558.56;;;10.53;100.00
54512;BME280;40419;47.438;19.026;2022-10-31T07:30:53;100553.88;;;10.47;100.00
54512;BME280;40419;47.438;19.026;2022-10-31T07:33:21;100563.69;;;10.48;100.00
54512;BME280;40419;47.438;19.026;2022-10-31T07:36:05;100561.75;;;10.57;100.00
54512;BME280;40419;47.438;19.026;2022-10-31T07:38:35;100551.47;;;10.67;100.00
54512;BME280;40419;47.438;19.026;2022-10-31T07:41:03;100544.00;;;10.69;100.00
54512;BME280;40419;47.438;19.026;2022-10-31T07:43:31;100546.72;;;10.69;100.00
54512;BME280;40419;47.438;19.026;2022-10-31T07:46:16;100541.00;;;10.64;100.00
54512;BME280;40419;47.438;19.026;2022-10-31T07:49:13;100547.00;;;10.74;100.00
54512;BME280;40419;47.438;19.026;2022-10-31T07:52:00;100551.47;;;10.67;100.00
54512;BME280;40419;47.438;19.026;2022-10-31T07:54:44;100557.38;;;10.71;100.00
54512;BME280;40419;47.438;19.026;2022-10-31T07:57:14;100552.59;;;10.73;100.00
54512;BME280;40419;47.438;19.026;2022-10-31T07:59:39;100548.56;;;10.69;100.00
54512;BME280;40419;47.438;19.026;2022-10-31T08:02:08;100552.88;;;10.63;100.00
54512;BME280;40419;47.438;19.026;2022-10-31T08:04:52;100554.47;;;10.72;100.00
54512;BME280;40419;47.438;19.026;2022-10-31T08:07:20;100555.75;;;10.76;100.00
54512;BME280;40419;47.438;19.026;2022-10-31T08:09:57;100559.13;;;10.78;100.00
54512;BME280;40419;47.438;19.026;2022-10-31T08:12:29;100561.28;;;10.83;100.00
54512;BME280;40419;47.438;19.026;2022-10-31T08:14:55;100564.00;;;10.68;100.00
54512;BME280;40419;47.438;19.026;2022-10-31T08:17:22;100569.13;;;10.78;100.00
54512;BME280;40419;47.438;19.026;2022-10-31T08:19:53;100563.72;;;10.78;100.00
54512;BME280;40419;47.438;19.026;2022-10-31T08:22:23;100568.28;;;10.77;100.00
54512;BME280;40419;47.438;19.026;2022-10-31T08:24:53;100568.47;;;10.76;100.00
54512;BME280;40419;47.438;19.026;2022-10-31T08:27:19;100562.69;;;10.79;100.00
54512;BME280;40419;47.438;19.026;2022-10-31T08:29:52;100572.00;;;10.76;100.00
54512;BME280;40419;47.438;19.026;2022-10-31T08:32:21;100566.50;;;10.70;100.00
54512;BME280;40419;47.438;19.026;2022-10-31T08:35:08;100565.13;;;10.74;100.00
54512;BME280;40419;47.438;19.026;2022-10-31T08:37:56;100562.50;;;10.80;100.00
54512;BME280;40419;47.438;19.026;2022-10-31T08:40:25;100561.53;;;10.73;100.00
54512;BME280;40419;47.438;19.026;2022-10-31T08:42:59;100567.53;;;10.84;100.00
54512;BME280;40419;47.438;19.026;2022-10-31T08:45:30;100559.59;;;10.82;100.00
54512;BME280;40419;47.438;19.026;2022-10-31T08:48:08;100570.63;;;10.95;100.00
54512;BME280;40419;47.438;19.026;2022-10-31T08:50:36;100562.97;;;10.84;100.00
54512;BME280;40419;47.438;19.026;2022-10-31T08:53:12;100567.34;;;10.85;100.00
54512;BME280;40419;47.438;19.026;2022-10-31T08:55:40;100565.56;;;10.62;100.00
54512;BME280;40419;47.438;19.026;2022-10-31T08:58:21;100569.47;;;10.75;100.00
54512;BME280;40419;47.438;19.026;2022-10-31T09:00:54;100573.69;;;10.77;100.00
54512;BME280;40419;47.438;19.026;2022-10-31T09:03:28;100572.13;;;10.68;100.00
54512;BME280;40419;47.438;19.026;2022-10-31T09:05:58;100571.28;;;10.82;100.00
54512;BME280;40419;47.438;19.026;2022-10-31T09:08:29;100587.63;;;10.89;100.00
54512;BME280;40419;47.438;19.026;2022-10-31T09:10:59;100574.44;;;11.01;100.00
54512;BME280;40419;47.438;19.026;2022-10-31T09:14:00;100575.00;;;10.96;100.00
54512;BME280;40419;47.438;19.026;2022-10-31T09:16:58;100576.84;;;10.96;100.00
54512;BME280;40419;47.438;19.026;2022-10-31T09:19:37;100577.16;;;10.86;100.00
54512;BME280;40419;47.438;19.026;2022-10-31T09:22:06;100589.56;;;10.80;100.00
54512;BME280;40419;47.438;19.026;2022-10-31T09:24:32;100576.16;;;10.87;100.00
54512;BME280;40419;47.438;19.026;2022-10-31T09:27:02;100579.50;;;10.89;100.00
54512;BME280;40419;47.438;19.026;2022-10-31T09:29:28;100574.06;;;10.89;100.00
54512;BME280;40419;47.438;19.026;2022-10-31T09:32:01;100581.19;;;10.75;100.00
54512;BME280;40419;47.438;19.026;2022-10-31T09:34:28;100580.81;;;10.78;100.00
54512;BME280;40419;47.438;19.026;2022-10-31T09:37:06;100580.13;;;10.91;100.00
54512;BME280;40419;47.438;19.026;2022-10-31T09:39:36;100584.91;;;10.89;100.00
54512;BME280;40419;47.438;19.026;2022-10-31T09:42:23;100587.81;;;10.88;100.00
54512;BME280;40419;47.438;19.026;2022-10-31T09:45:18;100590.31;;;11.04;100.00
54512;BME280;40419;47.438;19.026;2022-10-31T09:48:17;100589.94;;;11.07;100.00
54512;BME280;40419;47.438;19.026;2022-10-31T09:51:20;100581.56;;;11.02;100.00
54512;BME280;40419;47.438;19.026;2022-10-31T09:56:33;100591.63;;;11.08;100.00
54512;BME280;40419;47.438;19.026;2022-10-31T09:59:14;100582.94;;;10.98;100.00
54512;BME280;40419;47.438;19.026;2022-10-31T10:01:53;100590.41;;;10.96;100.00
54512;BME280;40419;47.438;19.026;2022-10-31T10:04:40;100579.38;;;11.12;100.00
54512;BME280;40419;47.438;19.026;2022-10-31T10:07:21;100581.00;;;11.07;100.00
54512;BME280;40419;47.438;19.026;2022-10-31T10:10:18;100578.84;;;10.87;100.00
54512;BME280;40419;47.438;19.026;2022-10-31T10:18:30;100591.63;;;11.08;100.00
54512;BME280;40419;47.438;19.026;2022-10-31T10:27:19;100574.06;;;11.19;100.00
54512;BME280;40419;47.438;19.026;2022-10-31T10:30:33;100564.31;;;11.25;100.00
54512;BME280;40419;47.438;19.026;2022-10-31T10:33:29;100571.41;;;11.26;100.00
54512;BME280;40419;47.438;19.026;2022-10-31T10:36:05;100568.88;;;11.24;100.00
54512;BME280;40419;47.438;19.026;2022-10-31T10:41:22;100560.00;;;11.15;100.00
54512;BME280;40419;47.438;19.026;2022-10-31T10:43:51;100559.72;;;11.25;100.00
54512;BME280;40419;47.438;19.026;2022-10-31T10:57:27;100553.69;;;11.23;100.00
54512;BME280;40419;47.438;19.026;2022-10-31T10:59:55;100557.13;;;11.17;100.00
54512;BME280;40419;47.438;19.026;2022-10-31T11:02:30;100561.44;;;11.11;100.00
54512;BME280;40419;47.438;19.026;2022-10-31T11:05:00;100561.53;;;11.18;100.00
54512;BME280;40419;47.438;19.026;2022-10-31T11:07:41;100563.69;;;11.08;100.00
54512;BME280;40419;47.438;19.026;2022-10-31T11:10:12;100553.38;;;11.18;100.00
54512;BME280;40419;47.438;19.026;2022-10-31T11:12:58;100552.19;;;11.21;100.00
54512;BME280;40419;47.438;19.026;2022-10-31T11:15:28;100560.56;;;11.26;100.00
54512;BME280;40419;47.438;19.026;2022-10-31T11:17:59;100553.00;;;11.21;100.00
54512;BME280;40419;47.438;19.026;2022-10-31T11:20:33;100552.81;;;11.23;100.00
54512;BME280;40419;47.438;19.026;2022-10-31T11:23:21;100549.47;;;11.21;100.00
54512;BME280;40419;47.438;19.026;2022-10-31T11:28:27;100545.00;;;11.13;100.00
54512;BME280;40419;47.438;19.026;2022-10-31T11:31:06;100548.34;;;11.15;100.00
54512;BME280;40419;47.438;19.026;2022-10-31T11:33:48;100546.22;;;11.10;100.00
54512;BME280;40419;47.438;19.026;2022-10-31T11:38:46;100542.28;;;11.13;100.00
54512;BME280;40419;47.438;19.026;2022-10-31T11:41:29;100535.69;;;10.71;100.00
54512;BME280;40419;47.438;19.026;2022-10-31T11:44:05;100535.75;;;10.92;100.00
54512;BME280;40419;47.438;19.026;2022-10-31T11:46:40;100536.22;;;10.96;100.00
54512;BME280;40419;47.438;19.026;2022-10-31T11:51:42;100544.53;;;11.09;100.00
54512;BME280;40419;47.438;19.026;2022-10-31T11:54:31;100534.59;;;11.16;100.00
54512;BME280;40419;47.438;19.026;2022-10-31T11:56:58;100537.13;;;11.18;100.00
54512;BME280;40419;47.438;19.026;2022-10-31T11:59:28;100535.75;;;11.07;100.00
54512;BME280;40419;47.438;19.026;2022-10-31T12:01:59;100534.78;;;11.15;100.00
54512;BME280;40419;47.438;19.026;2022-10-31T12:04:40;100528.38;;;11.38;100.00
54512;BME280;40419;47.438;19.026;2022-10-31T12:07:09;100523.84;;;11.23;100.00
54512;BME280;40419;47.438;19.026;2022-10-31T12:09:36;100529.00;;;11.18;100.00
54512;BME280;40419;47.438;19.026;2022-10-31T12:23:15;100537.56;;;11.22;100.00
54512;BME280;40419;47.438;19.026;2022-10-31T12:26:27;100531.59;;;11.26;100.00
54512;BME280;40419;47.438;19.026;2022-10-31T12:31:37;100542.16;;;11.21;100.00
54512;BME280;40419;47.438;19.026;2022-10-31T12:37:06;100521.97;;;11.24;100.00
54512;BME280;40419;47.438;19.026;2022-10-31T12:58:49;100526.22;;;11.11;100.00
54512;BME280;40419;47.438;19.026;2022-10-31T13:01:34;100518.69;;;10.92;100.00
54512;BME280;40419;47.438;19.026;2022-10-31T13:06:50;100522.00;;;11.09;100.00
54512;BME280;40419;47.438;19.026;2022-10-31T13:09:28;100519.56;;;11.14;100.00
54512;BME280;40419;47.438;19.026;2022-10-31T13:12:13;100516.84;;;11.14;100.00
54512;BME280;40419;47.438;19.026;2022-10-31T13:14:44;100509.38;;;11.16;100.00
54512;BME280;40419;47.438;19.026;2022-10-31T13:17:22;100526.25;;;10.96;100.00
54512;BME280;40419;47.438;19.026;2022-10-31T13:19:51;100513.63;;;11.04;100.00
54512;BME280;40419;47.438;19.026;2022-10-31T13:22:26;100510.16;;;11.10;100.00
54512;BME280;40419;47.438;19.026;2022-10-31T13:30:18;100513.84;;;10.87;100.00
54512;BME280;40419;47.438;19.026;2022-10-31T13:38:09;100511.22;;;10.79;100.00
54512;BME280;40419;47.438;19.026;2022-10-31T13:45:53;100519.13;;;10.95;100.00
54512;BME280;40419;47.438;19.026;2022-10-31T13:48:35;100523.78;;;11.02;100.00
54512;BME280;40419;47.438;19.026;2022-10-31T13:51:07;100522.66;;;10.96;100.00
54512;BME280;40419;47.438;19.026;2022-10-31T13:56:32;100506.72;;;10.86;100.00
54512;BME280;40419;47.438;19.026;2022-10-31T14:02:02;100512.78;;;10.88;100.00
54512;BME280;40419;47.438;19.026;2022-10-31T14:05:01;100517.56;;;10.86;100.00
54512;BME280;40419;47.438;19.026;2022-10-31T14:07:46;100504.63;;;11.03;100.00
54512;BME280;40419;47.438;19.026;2022-10-31T14:13:07;100504.97;;;10.78;100.00
54512;BME280;40419;47.438;19.026;2022-10-31T14:15:37;100513.72;;;10.66;100.00
54512;BME280;40419;47.438;19.026;2022-10-31T14:20:57;100509.63;;;10.70;100.00
54512;BME280;40419;47.438;19.026;2022-10-31T14:23:35;100507.00;;;10.76;100.00
54512;BME280;40419;47.438;19.026;2022-10-31T14:28:54;100499.63;;;10.85;100.00
54512;BME280;40419;47.438;19.026;2022-10-31T14:36:48;100506.16;;;10.76;100.00
54512;BME280;40419;47.438;19.026;2022-10-31T14:39:31;100509.81;;;10.83;100.00
54512;BME280;40419;47.438;19.026;2022-10-31T14:45:25;100505.41;;;10.82;100.00
54512;BME280;40419;47.438;19.026;2022-10-31T14:53:41;100508.31;;;10.80;100.00
54512;BME280;40419;47.438;19.026;2022-10-31T14:56:09;100505.22;;;10.69;100.00
54512;BME280;40419;47.438;19.026;2022-10-31T14:58:45;100501.78;;;10.75;100.00
54512;BME280;40419;47.438;19.026;2022-10-31T15:03:54;100506.56;;;10.58;100.00
54512;BME280;40419;47.438;19.026;2022-10-31T15:06:23;100509.00;;;10.68;100.00
54512;BME280;40419;47.438;19.026;2022-10-31T15:08:55;100501.88;;;10.67;100.00
54512;BME280;40419;47.438;19.026;2022-10-31T15:11:26;100507.13;;;10.53;100.00
54512;BME280;40419;47.438;19.026;2022-10-31T15:13:56;100506.00;;;10.48;100.00
54512;BME280;40419;47.438;19.026;2022-10-31T15:16:33;100502.25;;;10.63;100.00
54512;BME280;40419;47.438;19.026;2022-10-31T15:19:07;100500.56;;;10.62;100.00
54512;BME280;40419;47.438;19.026;2022-10-31T15:21:43;100507.00;;;10.76;100.00
54512;BME280;40419;47.438;19.026;2022-10-31T15:24:17;100494.56;;;10.82;100.00
54512;BME280;40419;47.438;19.026;2022-10-31T15:26:51;100506.09;;;10.84;100.00
54512;BME280;40419;47.438;19.026;2022-10-31T15:29:22;100505.16;;;10.77;100.00
54512;BME280;40419;47.438;19.026;2022-10-31T15:31:55;100510.84;;;10.67;100.00
54512;BME280;40419;47.438;19.026;2022-10-31T15:34:39;100504.41;;;10.68;100.00